Aplington, Iowa
Current Conditions -  °F | °C
As of 7:35 PM on Monday 24 Nov 2014 (Local Time) from KIFA Reporting Station
Light Snow Light Snow  
Wind Chill:   Ceiling: 1600
Heat Index: 21°   Visibility: 5mi
Dew Point: 17°   Wind: 20mph
Humidity: 82%   Direction: 300°WNW
Pressure: 29.82"   Gusts: 28mph
Location:  42.58°N, 92.88°W
Report Text: KIFA 250135Z AUTO 30017G24KT 5SM -SN BKN016 BKN024 OVC040 M06/M09 A2982 RMK AO2 T10601086
Loading
Personal Weather Stations






























Interactive Weather Map New forecast layout! Learn more

10-Day Weather Forecast

Advertisements
Track Severe Weather on mobile